Time;durP1;ratioP1;P1;durP2;ratioP2;P2;SDS_P1;SDS_P2;PMS_P1;PMS_P2;Temp;Humidity;BMP_temperature;BMP_pressure;BME280_temperature;BME280_humidity;BME280_pressure;Samples;Min_cycle;Max_cycle;Signal;HPM_P1;HPM_P2
2022/11/21 00:04:43;;;;;;;5.73;2.63;;;;;;;7.18;56.33;99004.09;10471604;28;20232;-66
2022/11/21 00:09:44;;;;;;;2.70;2.40;;;;;;;7.46;55.95;98990.16;10471343;28;20691;-66
2022/11/21 00:14:46;;;;;;;2.83;2.60;;;;;;;8.15;55.14;98997.84;10481450;28;20269;-67
2022/11/21 00:19:47;;;;;;;4.73;2.80;;;;;;;7.49;56.56;99021.72;10481505;28;20276;-66
2022/11/21 00:24:49;;;;;;;4.37;2.77;;;;;;;7.49;56.78;99003.94;10483549;28;20224;-67
2022/11/21 00:29:54;;;;;;;4.77;3.03;;;;;;;7.84;55.64;98996.22;10471772;28;20254;-67
2022/11/21 00:34:56;;;;;;;6.33;3.10;;;;;;;6.69;58.87;99021.25;10481242;28;20239;-67
2022/11/21 00:39:58;;;;;;;3.77;3.00;;;;;;;7.85;56.14;98973.91;10477750;28;20887;-67
2022/11/21 00:44:59;;;;;;;3.43;2.97;;;;;;;7.35;57.06;98999.41;10474051;28;20243;-66
2022/11/21 00:50:01;;;;;;;2.83;2.63;;;;;;;7.16;57.68;99008.75;10481726;28;20246;-67
2022/11/21 00:55:03;;;;;;;3.77;2.50;;;;;;;7.38;57.78;98983.09;10480599;28;20241;-67
2022/11/21 01:00:05;;;;;;;3.10;2.87;;;;;;;6.70;58.38;99004.31;10481381;28;20235;-69
2022/11/21 01:05:07;;;;;;;2.80;2.37;;;;;;;7.80;56.60;98957.63;10475281;28;20238;-68
2022/11/21 01:10:09;;;;;;;4.30;3.10;;;;;;;7.30;57.61;98975.19;10478474;28;20241;-69
2022/11/21 01:15:11;;;;;;;5.23;2.70;;;;;;;7.70;56.31;98952.59;10472955;28;20231;-67
2022/11/21 01:20:12;;;;;;;6.67;3.27;;;;;;;6.63;59.10;98976.75;10482565;28;20581;-68
2022/11/21 01:25:14;;;;;;;5.90;2.80;;;;;;;6.63;58.89;98972.28;10473203;28;20265;-66
2022/11/21 01:30:16;;;;;;;2.20;2.10;;;;;;;6.56;58.60;98979.31;10474177;28;20289;-67
2022/11/21 01:35:18;;;;;;;2.90;2.60;;;;;;;6.79;57.85;98941.28;10474741;28;20228;-66
2022/11/21 01:40:20;;;;;;;4.63;2.60;;;;;;;7.09;57.47;98930.66;10474368;28;20235;-67
2022/11/21 01:45:54;;;;;;;2.80;2.10;;;;;;;7.49;55.65;98916.09;10476951;28;20242;-67
2022/11/21 01:51:04;;;;;;;2.20;1.97;;;;;;;7.03;56.12;98924.25;10470916;28;20232;-67
2022/11/21 01:56:07;;;;;;;2.73;2.10;;;;;;;6.51;57.11;98947.09;10473784;28;20272;-67
2022/11/21 02:01:09;;;;;;;2.87;2.37;;;;;;;7.29;56.15;98953.09;10476250;28;20242;-67
2022/11/21 02:06:11;;;;;;;3.23;2.40;;;;;;;7.17;56.27;98952.72;10472311;28;20588;-67
2022/11/21 02:11:16;;;;;;;3.37;2.40;;;;;;;7.73;55.70;98946.91;10471185;28;20753;-67
2022/11/21 02:16:18;;;;;;;1.93;1.83;;;;;;;7.46;55.51;98959.03;10476113;28;20227;-68
2022/11/21 02:21:28;;;;;;;2.20;2.00;;;;;;;6.79;56.58;98981.16;10472406;28;20232;-67
2022/11/21 02:26:30;;;;;;;2.33;2.13;;;;;;;7.01;56.16;98962.69;10473059;28;20832;-67
2022/11/21 02:31:32;;;;;;;3.87;1.97;;;;;;;6.95;56.11;98969.53;10476221;28;20618;-68
2022/11/21 02:36:39;;;;;;;1.97;1.87;;;;;;;8.02;54.62;98947.88;10476132;28;20237;-68
2022/11/21 02:41:50;;;;;;;2.27;2.13;;;;;;;7.80;54.96;98962.16;10476160;28;20253;-68
2022/11/21 02:46:52;;;;;;;1.80;1.70;;;;;;;7.15;56.56;98960.03;10467649;28;20234;-67
2022/11/21 02:51:54;;;;;;;2.40;2.20;;;;;;;7.08;56.66;98963.63;10466993;28;20239;-67
2022/11/21 02:56:56;;;;;;;3.07;1.90;;;;;;;7.46;55.62;98951.06;10475444;28;20871;-67
2022/11/21 03:01:59;;;;;;;2.47;2.17;;;;;;;7.14;56.59;98968.22;10475552;28;20735;-67
2022/11/21 03:07:01;;;;;;;5.13;2.20;;;;;;;8.32;54.97;98947.78;10469153;28;20265;-68
2022/11/21 03:12:08;;;;;;;2.40;2.20;;;;;;;7.40;55.68;98966.94;10473097;28;20230;-67
2022/11/21 03:17:09;;;;;;;2.03;1.93;;;;;;;7.74;56.04;98935.22;10473275;28;20225;-67
2022/11/21 03:22:12;;;;;;;3.73;2.33;;;;;;;8.96;53.79;98964.75;10471372;28;20290;-67
2022/11/21 03:27:13;;;;;;;2.83;2.23;;;;;;;7.77;55.65;98989.97;10475815;28;20227;-66
2022/11/21 03:32:15;;;;;;;4.43;2.60;;;;;;;7.80;56.60;98951.50;10470839;28;20738;-67
2022/11/21 03:37:17;;;;;;;3.73;2.17;;;;;;;7.78;56.17;98961.47;10473080;28;20253;-68
2022/11/21 03:42:18;;;;;;;2.63;2.40;;;;;;;5.88;59.21;98973.75;10478645;28;20263;-67
2022/11/21 03:47:20;;;;;;;2.90;2.10;;;;;;;6.58;58.22;98972.00;10481131;28;20712;-67
2022/11/21 03:52:21;;;;;;;4.00;2.47;;;;;;;7.12;57.46;98972.88;10479299;28;20227;-67
2022/11/21 03:57:23;;;;;;;2.47;2.37;;;;;;;7.40;57.99;98935.81;10483951;28;20238;-68
2022/11/21 04:02:25;;;;;;;3.30;2.20;;;;;;;7.96;55.33;98940.63;10483837;28;20235;-67
2022/11/21 04:07:28;;;;;;;2.47;2.27;;;;;;;8.87;54.23;98965.94;10480419;28;20234;-67
2022/11/21 04:12:30;;;;;;;3.57;2.50;;;;;;;7.93;55.56;98967.63;10479410;28;20279;-66
2022/11/21 04:17:32;;;;;;;4.70;2.50;;;;;;;6.44;57.27;98997.50;10476094;28;20242;-68
2022/11/21 04:22:33;;;;;;;3.57;2.40;;;;;;;7.57;56.43;98973.72;10486964;28;20234;-67
2022/11/21 04:27:35;;;;;;;3.97;2.63;;;;;;;7.79;55.13;98965.81;10465760;28;20231;-66
2022/11/21 04:32:36;;;;;;;4.13;2.80;;;;;;;8.88;53.25;98997.75;10473198;28;20795;-68
2022/11/21 04:37:38;;;;;;;4.77;2.67;;;;;;;8.97;52.98;99011.78;10481133;28;20357;-66
2022/11/21 04:42:44;;;;;;;4.87;2.87;;;;;;;8.28;54.03;99013.13;10471629;28;20231;-66
2022/11/21 04:47:46;;;;;;;2.90;2.40;;;;;;;8.45;54.02;99011.91;10471239;28;20247;-64
2022/11/21 19:12:18;;;;;;;9.63;6.20;;;;;;;6.41;55.75;97860.56;10476729;28;20304;-71
2022/11/21 19:17:20;;;;;;;9.07;6.17;;;;;;;6.80;55.11;97871.38;10479600;28;20224;-72
2022/11/21 19:22:22;;;;;;;8.77;5.90;;;;;;;7.42;52.98;97897.66;10459965;28;20231;-71
2022/11/21 19:27:24;;;;;;;7.13;5.03;;;;;;;7.10;54.61;97876.25;10462448;28;20235;-73
2022/11/21 19:32:25;;;;;;;7.93;4.73;;;;;;;6.03;56.71;97861.13;10480428;28;20285;-71
2022/11/21 19:37:27;;;;;;;7.17;4.90;;;;;;;7.53;54.70;97833.13;10478309;28;20235;-70
2022/11/21 19:42:29;;;;;;;10.53;5.53;;;;;;;7.33;55.21;97857.16;10456660;28;20238;-71
2022/11/21 19:47:34;;;;;;;8.47;4.53;;;;;;;6.81;55.49;97887.13;10483061;28;20236;-72
2022/11/21 19:52:36;;;;;;;7.20;4.20;;;;;;;8.15;54.01;97835.22;10488835;28;20271;-72
2022/11/21 19:57:38;;;;;;;8.63;6.90;;;;;;;8.25;52.97;97873.72;10467213;28;20272;-73
2022/11/21 20:02:39;;;;;;;16.37;11.03;;;;;;;7.82;52.66;97910.81;10450927;28;20706;-72
2022/11/21 20:07:41;;;;;;;15.17;10.83;;;;;;;8.97;52.06;97873.31;10458737;28;20645;-70
2022/11/21 20:12:43;;;;;;;17.93;11.97;;;;;;;7.00;55.30;97932.50;10473859;28;20322;-70
2022/11/21 20:17:51;;;;;;;13.50;8.60;;;;;;;6.68;56.56;97900.41;10443789;28;20223;-71
2022/11/21 20:22:53;;;;;;;14.77;7.23;;;;;;;7.75;54.44;97889.53;10457976;28;20258;-70
2022/11/21 20:27:54;;;;;;;8.83;6.27;;;;;;;7.24;56.00;97888.50;10442191;28;20239;-70
2022/11/21 20:32:56;;;;;;;9.33;6.10;;;;;;;7.29;54.88;97903.81;10457070;28;20695;-75
2022/11/21 20:37:58;;;;;;;10.80;5.77;;;;;;;8.92;52.61;97835.00;10467149;28;20616;-72
2022/11/21 20:42:59;;;;;;;12.73;7.60;;;;;;;9.08;51.81;97841.59;10491351;28;20224;-72
2022/11/21 20:48:02;;;;;;;29.57;21.63;;;;;;;9.49;51.54;97848.94;10481997;28;20241;-69
2022/11/21 20:53:10;;;;;;;11.27;7.00;;;;;;;9.24;51.53;97845.56;10486832;28;20327;-71
2022/11/21 20:58:34;;;;;;;12.23;5.83;;;;;;;9.32;51.74;97850.59;10479107;28;20240;-72
2022/11/21 21:03:37;;;;;;;7.47;5.37;;;;;;;9.75;50.94;97855.81;10481581;28;20231;-71
2022/11/21 21:08:39;;;;;;;7.13;5.23;;;;;;;8.94;52.84;97875.63;10483161;28;20227;-72
2022/11/21 21:13:46;;;;;;;9.67;5.20;;;;;;;9.46;52.25;97856.59;10481849;28;20268;-69
2022/11/21 21:18:49;;;;;;;7.53;5.47;;;;;;;9.50;52.04;97845.25;10472681;28;20894;-69
2022/11/21 21:24:04;;;;;;;10.83;6.17;;;;;;;9.56;52.11;97851.53;10479302;28;20242;-70
2022/11/21 21:29:06;;;;;;;11.73;6.30;;;;;;;9.42;51.84;97850.06;10423534;28;20209;-67
2022/11/21 21:34:08;;;;;;;9.30;6.47;;;;;;;9.43;51.82;97841.00;10475595;28;20255;-67
2022/11/21 21:39:10;;;;;;;7.90;5.70;;;;;;;9.69;52.08;97858.56;10475817;28;20440;-67
2022/11/21 21:44:12;;;;;;;9.63;6.47;;;;;;;9.48;51.95;97849.97;10477142;28;20230;-66
2022/11/21 21:49:13;;;;;;;11.13;5.57;;;;;;;9.96;51.87;97869.72;10490457;28;20731;-67
2022/11/21 21:54:17;;;;;;;9.43;7.00;;;;;;;9.43;51.84;97862.38;10477601;23;20232;-35
2022/11/21 21:59:19;;;;;;;11.10;6.53;;;;;;;8.39;54.16;97874.41;10442597;28;20662;-33
2022/11/21 22:04:20;;;;;;;13.87;6.03;;;;;;;8.56;54.10;97855.22;10440921;28;20783;-33
2022/11/21 22:09:22;;;;;;;12.67;7.03;;;;;;;9.94;51.44;97848.59;10449779;28;20236;-33
2022/11/21 22:14:24;;;;;;;11.43;7.50;;;;;;;8.25;53.77;97846.22;10439155;28;20241;-33
2022/11/21 22:19:26;;;;;;;11.47;6.77;;;;;;;8.54;53.92;97843.94;10443093;28;20236;-33
2022/11/21 22:24:28;;;;;;;12.10;6.17;;;;;;;6.90;58.82;97815.13;10441145;28;20228;-33
2022/11/21 22:29:30;;;;;;;10.23;6.10;;;;;;;6.85;59.52;97802.44;10453062;28;20708;-33
2022/11/21 22:34:32;;;;;;;7.47;6.17;;;;;;;7.01;58.93;97785.25;10442700;28;20228;-33
2022/11/21 22:39:33;;;;;;;15.17;6.53;;;;;;;8.09;56.37;97779.13;10445674;28;20236;-33
2022/11/21 22:44:35;;;;;;;8.63;5.93;;;;;;;5.99;60.83;97734.28;10442877;28;20715;-33
2022/11/21 22:49:37;;;;;;;9.47;6.90;;;;;;;6.44;61.24;97755.69;10446240;28;20230;-34
2022/11/21 22:54:38;;;;;;;9.93;6.30;;;;;;;8.62;56.32;97726.34;10418823;28;20226;-34
2022/11/21 22:59:40;;;;;;;12.87;7.00;;;;;;;8.35;55.92;97765.78;10435397;28;20239;-34
2022/11/21 23:04:42;;;;;;;10.07;5.93;;;;;;;7.46;57.61;97784.41;10412717;28;20246;-34
2022/11/21 23:09:43;;;;;;;9.07;6.67;;;;;;;6.98;59.57;97773.16;10423263;28;20231;-34
2022/11/21 23:14:45;;;;;;;11.37;6.13;;;;;;;6.39;60.93;97796.16;10448524;28;20235;-34
2022/11/21 23:19:47;;;;;;;8.10;5.73;;;;;;;5.77;62.99;97753.03;10439788;28;20235;-34
2022/11/21 23:24:49;;;;;;;7.60;4.90;;;;;;;5.23;65.34;97712.31;10446078;28;20251;-33
2022/11/21 23:29:50;;;;;;;7.63;4.43;;;;;;;5.85;63.96;97720.19;10454210;28;20239;-33
2022/11/21 23:34:52;;;;;;;6.00;4.00;;;;;;;5.47;64.29;97703.00;10447187;28;20231;-34
2022/11/21 23:39:53;;;;;;;7.10;3.83;;;;;;;6.25;62.82;97683.78;10454124;28;20235;-34
2022/11/21 23:44:55;;;;;;;4.20;3.37;;;;;;;5.23;65.86;97663.78;10440592;28;20246;-34
2022/11/21 23:49:57;;;;;;;6.57;3.83;;;;;;;5.82;64.19;97678.97;10449339;28;20326;-33
2022/11/21 23:54:58;;;;;;;5.77;3.60;;;;;;;6.59;62.15;97647.31;10444148;28;20708;-34
